createdAt,value
2023-04-18T00:02:11.261Z,97828.19
2023-04-18T00:04:38.296Z,97834.09
2023-04-18T00:07:05.222Z,97835.34
2023-04-18T00:09:32.115Z,97841.09
2023-04-18T00:11:59.004Z,97838.47
2023-04-18T00:14:25.949Z,97832.69
2023-04-18T00:16:54.338Z,97842.25
2023-04-18T00:19:21.744Z,97845.78
2023-04-18T00:21:49.616Z,97848.38
2023-04-18T00:24:16.861Z,97834.00
2023-04-18T00:26:43.697Z,97835.16
2023-04-18T00:29:10.605Z,97838.78
2023-04-18T00:31:37.576Z,97841.81
2023-04-18T00:34:04.504Z,97838.78
2023-04-18T00:36:31.364Z,97842.59
2023-04-18T00:38:58.231Z,97833.81
2023-04-18T00:41:27.710Z,97838.25
2023-04-18T00:43:55.282Z,97841.09
2023-04-18T00:46:22.212Z,97846.91
2023-04-18T00:48:49.516Z,97846.63
2023-04-18T00:51:16.467Z,97843.28
2023-04-18T00:53:44.593Z,97840.28
2023-04-18T00:56:11.781Z,97842.03
2023-04-18T00:58:40.741Z,97839.44
2023-04-18T01:01:08.109Z,97851.66
2023-04-18T01:03:35.423Z,97849.16
2023-04-18T01:06:02.477Z,97837.31
2023-04-18T01:08:29.695Z,97843.34
2023-04-18T01:10:56.532Z,97837.78
2023-04-18T01:13:23.403Z,97838.09
2023-04-18T01:15:51.031Z,97841.12
2023-04-18T01:18:18.125Z,97843.37
2023-04-18T01:20:49.949Z,97844.47
2023-04-18T01:23:18.700Z,97847.97
2023-04-18T01:25:46.859Z,97838.66
2023-04-18T01:28:14.735Z,97838.97
2023-04-18T01:30:41.823Z,97840.88
2023-04-18T01:33:08.767Z,97834.81
2023-04-18T01:35:35.874Z,97833.00
2023-04-18T01:38:02.752Z,97825.78
2023-04-18T01:40:30.408Z,97830.72
2023-04-18T01:42:57.263Z,97831.78
2023-04-18T01:45:24.269Z,97834.28
2023-04-18T01:47:51.261Z,97834.63
2023-04-18T01:50:18.220Z,97834.28
2023-04-18T01:52:45.154Z,97834.38
2023-04-18T01:55:12.255Z,97833.06
2023-04-18T01:57:39.256Z,97837.50
2023-04-18T02:00:07.134Z,97837.03
2023-04-18T02:02:34.312Z,97839.38
2023-04-18T02:05:01.420Z,97840.44
2023-04-18T02:07:28.407Z,97842.00
2023-04-18T02:09:55.308Z,97848.94
2023-04-18T02:12:22.247Z,97849.31
2023-04-18T02:14:54.282Z,97851.44
2023-04-18T02:17:23.686Z,97847.03
2023-04-18T02:19:53.959Z,97841.41
2023-04-18T02:22:20.802Z,97843.09
2023-04-18T02:24:47.675Z,97848.50
2023-04-18T02:27:14.568Z,97857.16
2023-04-18T02:29:41.459Z,97854.25
2023-04-18T02:32:09.271Z,97852.47
2023-04-18T02:34:36.975Z,97851.09
2023-04-18T02:37:04.467Z,97849.34
2023-04-18T02:39:31.821Z,97850.97
2023-04-18T02:41:58.983Z,97856.12
2023-04-18T02:44:25.896Z,97855.41
2023-04-18T02:46:52.774Z,97854.13
2023-04-18T02:49:19.981Z,97853.41
2023-04-18T02:51:46.971Z,97850.66
2023-04-18T02:54:13.987Z,97852.56
2023-04-18T02:56:42.978Z,97859.69
2023-04-18T02:59:09.877Z,97855.91
2023-04-18T03:01:37.051Z,97849.38
2023-04-18T03:04:04.062Z,97853.63
2023-04-18T03:06:31.913Z,97864.41
2023-04-18T03:08:58.957Z,97863.66
2023-04-18T03:11:25.982Z,97860.25
2023-04-18T03:13:53.987Z,97853.09
2023-04-18T03:16:21.070Z,97864.69
2023-04-18T03:18:48.022Z,97862.09
2023-04-18T03:21:15.047Z,97858.78
2023-04-18T03:23:41.908Z,97858.97
2023-04-18T03:26:09.254Z,97865.81
2023-04-18T03:28:36.107Z,97865.09
2023-04-18T03:31:03.047Z,97859.44
2023-04-18T03:33:29.900Z,97868.50
2023-04-18T03:35:56.840Z,97872.22
2023-04-18T03:38:23.727Z,97867.97
2023-04-18T03:40:50.604Z,97869.78
2023-04-18T03:43:18.495Z,97864.47
2023-04-18T03:45:47.518Z,97866.13
2023-04-18T03:48:14.839Z,97870.12
2023-04-18T03:50:41.796Z,97863.56
2023-04-18T03:53:08.674Z,97863.19
2023-04-18T03:55:35.691Z,97864.19
2023-04-18T03:58:02.613Z,97867.91
2023-04-18T04:00:29.570Z,97872.72
2023-04-18T04:02:56.643Z,97871.75
2023-04-18T04:05:23.773Z,97875.03
2023-04-18T04:07:50.784Z,97882.50
2023-04-18T04:10:17.662Z,97888.22
2023-04-18T04:12:44.585Z,97877.34
2023-04-18T04:15:12.070Z,97882.47
2023-04-18T04:17:39.108Z,97890.50
2023-04-18T04:20:06.579Z,97892.84
2023-04-18T04:22:34.588Z,97896.66
2023-04-18T04:25:01.587Z,97904.47
2023-04-18T04:27:28.469Z,97906.16
2023-04-18T04:29:56.600Z,97903.75
2023-04-18T04:32:24.198Z,97900.97
2023-04-18T04:34:51.087Z,97900.41
2023-04-18T04:37:18.905Z,97907.72
2023-04-18T04:39:46.325Z,97901.09
2023-04-18T04:42:13.630Z,97899.75
2023-04-18T04:44:41.879Z,97896.41
2023-04-18T04:47:08.768Z,97903.88
2023-04-18T04:49:35.905Z,97908.56
2023-04-18T04:52:03.237Z,97913.97
2023-04-18T04:54:30.532Z,97916.25
2023-04-18T04:56:57.465Z,97917.97
2023-04-18T04:59:24.777Z,97915.75
2023-04-18T05:01:51.715Z,97922.28
2023-04-18T05:04:18.865Z,97920.44
2023-04-18T05:06:46.289Z,97917.75
2023-04-18T05:09:13.781Z,97921.38
2023-04-18T05:11:40.715Z,97920.41
2023-04-18T05:14:07.678Z,97924.56
2023-04-18T05:16:34.552Z,97925.41
2023-04-18T05:19:01.540Z,97930.78
2023-04-18T05:21:29.125Z,97930.09
2023-04-18T05:23:58.936Z,97933.09
2023-04-18T05:26:25.821Z,97936.37
2023-04-18T05:28:52.685Z,97939.34
2023-04-18T05:31:19.640Z,97938.16
2023-04-18T05:33:46.567Z,97940.63
2023-04-18T05:36:13.479Z,97941.94
2023-04-18T05:38:40.395Z,97945.81
2023-04-18T05:41:07.219Z,97950.59
2023-04-18T05:43:34.154Z,97940.31
2023-04-18T05:46:01.060Z,97955.03
2023-04-18T05:48:27.958Z,97949.19
2023-04-18T05:50:54.843Z,97956.53
2023-04-18T05:53:21.889Z,97953.69
2023-04-18T05:55:49.055Z,97950.81
2023-04-18T05:58:16.314Z,97956.22
2023-04-18T06:00:48.162Z,97964.53
2023-04-18T06:03:15.254Z,97956.25
2023-04-18T06:05:42.372Z,97950.06
2023-04-18T06:08:09.347Z,97951.63
2023-04-18T06:10:38.898Z,97959.13
2023-04-18T06:13:06.217Z,97964.38
2023-04-18T06:15:33.118Z,97960.03
2023-04-18T06:17:59.989Z,97967.00
2023-04-18T06:20:26.913Z,97963.06
2023-04-18T06:22:53.815Z,97967.78
2023-04-18T06:25:20.992Z,97965.87
2023-04-18T06:27:50.196Z,97974.47
2023-04-18T06:30:17.071Z,97972.75
2023-04-18T06:32:44.098Z,97976.66
2023-04-18T06:35:11.184Z,97983.00
2023-04-18T06:37:38.084Z,97981.47
2023-04-18T06:40:05.728Z,97983.97
2023-04-18T06:42:32.640Z,97971.59
2023-04-18T06:44:59.568Z,97983.63
2023-04-18T06:47:26.698Z,97985.16
2023-04-18T06:49:55.576Z,97979.56
2023-04-18T06:52:22.550Z,97987.63
2023-04-18T06:54:49.429Z,97989.37
2023-04-18T06:57:16.354Z,97984.91
2023-04-18T06:59:43.315Z,97988.37
2023-04-18T07:02:10.222Z,97986.88
2023-04-18T07:04:37.200Z,97996.19
2023-04-18T07:07:05.370Z,97999.81
2023-04-18T07:09:32.453Z,98001.38
2023-04-18T07:11:59.378Z,97998.88
2023-04-18T07:14:28.186Z,97998.88
2023-04-18T07:16:56.175Z,98005.44
2023-04-18T07:19:23.115Z,97995.97
2023-04-18T07:21:50.088Z,98003.63
2023-04-18T07:24:17.021Z,98003.25
2023-04-18T07:26:44.010Z,97999.06
2023-04-18T07:29:20.376Z,97992.09
2023-04-18T07:31:47.543Z,97997.47
2023-04-18T07:34:15.345Z,98000.53
2023-04-18T07:36:42.834Z,97996.75
2023-04-18T07:39:13.729Z,97998.03
2023-04-18T07:41:40.590Z,97998.19
2023-04-18T07:44:07.552Z,98009.25
2023-04-18T07:46:34.543Z,97999.50
2023-04-18T07:49:02.532Z,98012.78
2023-04-18T07:51:31.897Z,98010.38
2023-04-18T07:53:59.669Z,98017.03
2023-04-18T07:56:27.357Z,98018.13
2023-04-18T07:58:54.366Z,98025.75
2023-04-18T08:01:24.310Z,98004.31
2023-04-18T08:03:53.513Z,98014.06
2023-04-18T08:06:21.561Z,98025.19
2023-04-18T08:08:51.389Z,98020.91
2023-04-18T08:11:18.282Z,98019.66
2023-04-18T08:13:45.185Z,98018.63
2023-04-18T08:16:12.856Z,98016.03
2023-04-18T08:18:41.288Z,98010.69
2023-04-18T08:21:08.134Z,98012.37
2023-04-18T08:23:34.995Z,98018.06
2023-04-18T08:26:01.867Z,98023.34
2023-04-18T08:28:29.756Z,98026.19
2023-04-18T08:30:56.953Z,98024.53
2023-04-18T08:33:24.597Z,98027.97
2023-04-18T08:35:52.008Z,98026.63
2023-04-18T08:38:19.370Z,98033.47
2023-04-18T08:40:46.631Z,98040.09
2023-04-18T08:43:15.395Z,98040.66
2023-04-18T08:45:43.371Z,98039.41
2023-04-18T08:48:16.523Z,98044.44
2023-04-18T08:50:45.688Z,98038.97
2023-04-18T08:53:12.594Z,98037.00
2023-04-18T08:55:40.681Z,98043.38
2023-04-18T08:58:08.144Z,98036.63
2023-04-18T09:00:35.399Z,98049.47
2023-04-18T09:03:03.141Z,98048.06
2023-04-18T09:05:30.148Z,98044.59
2023-04-18T09:07:57.072Z,98049.16
2023-04-18T09:10:33.143Z,98054.66
2023-04-18T09:13:03.427Z,98053.19
2023-04-18T09:15:33.919Z,98058.44
2023-04-18T09:18:03.065Z,98065.09
2023-04-18T09:20:38.078Z,98062.88
2023-04-18T09:23:11.340Z,98061.06
2023-04-18T09:25:49.175Z,98069.97
2023-04-18T09:28:29.061Z,98072.56
2023-04-18T09:31:11.994Z,98068.13
2023-04-18T09:33:45.471Z,98058.09
2023-04-18T09:36:20.593Z,98068.75
2023-04-18T09:38:51.683Z,98068.19
2023-04-18T09:41:21.656Z,98080.50
2023-04-18T09:43:48.719Z,98076.38
2023-04-18T09:46:17.992Z,98078.41
2023-04-18T09:48:45.011Z,98076.50
2023-04-18T09:51:15.128Z,98080.22
2023-04-18T09:53:47.790Z,98073.88
2023-04-18T09:56:26.324Z,98081.19
2023-04-18T09:59:12.663Z,98073.37
2023-04-18T10:01:46.063Z,98072.37
2023-04-18T10:04:14.985Z,98074.63
2023-04-18T10:06:45.066Z,98079.19
2023-04-18T10:09:12.679Z,98083.47
2023-04-18T10:11:39.750Z,98082.72
2023-04-18T10:14:12.831Z,98087.22
2023-04-18T10:16:40.130Z,98080.50
2023-04-18T10:19:27.301Z,98083.19
2023-04-18T10:21:55.814Z,98080.41
2023-04-18T10:24:48.710Z,98079.66
2023-04-18T10:27:17.137Z,98082.50
2023-04-18T10:30:02.081Z,98081.09
2023-04-18T10:32:29.051Z,98083.78
2023-04-18T10:34:56.301Z,98080.50
2023-04-18T10:37:23.156Z,98082.63
2023-04-18T10:40:06.004Z,98086.16
2023-04-18T10:42:48.311Z,98077.41
2023-04-18T10:45:25.133Z,98076.09
2023-04-18T10:48:31.352Z,98072.87
2023-04-18T10:51:14.193Z,98074.22
2023-04-18T10:53:49.260Z,98072.81
2023-04-18T10:56:16.865Z,98069.56
2023-04-18T10:59:03.399Z,98074.44
2023-04-18T11:01:33.011Z,98075.13
2023-04-18T11:04:00.790Z,98073.88
2023-04-18T11:06:28.345Z,98068.22
2023-04-18T11:09:11.988Z,98063.19
2023-04-18T11:11:38.951Z,98064.87
2023-04-18T11:14:05.787Z,98066.69
2023-04-18T11:16:33.866Z,98072.19
2023-04-18T11:19:01.208Z,98069.25
2023-04-18T11:21:30.638Z,98064.37
2023-04-18T11:23:58.337Z,98061.91
2023-04-18T11:26:29.156Z,98063.84
2023-04-18T11:28:59.403Z,98065.09
2023-04-18T11:31:26.335Z,98058.78
2023-04-18T11:33:56.595Z,98069.28
2023-04-18T11:36:23.452Z,98064.37
2023-04-18T11:38:50.314Z,98069.38
2023-04-18T11:41:17.174Z,98066.59
2023-04-18T11:43:45.431Z,98065.16
2023-04-18T11:46:13.493Z,98065.56
2023-04-18T11:48:42.283Z,98067.50
2023-04-18T11:51:32.102Z,98061.81
2023-04-18T11:53:58.934Z,98071.66
2023-04-18T11:56:25.869Z,98066.03
2023-04-18T11:58:52.897Z,98058.81
2023-04-18T12:01:23.432Z,98059.28
2023-04-18T12:04:10.620Z,98059.50
2023-04-18T12:06:51.034Z,98063.47
2023-04-18T12:09:18.554Z,98056.69
2023-04-18T12:12:00.250Z,98066.25
2023-04-18T12:14:27.541Z,98056.63
2023-04-18T12:16:54.645Z,98065.53
2023-04-18T12:19:27.686Z,98060.56
2023-04-18T12:22:00.753Z,98059.41
2023-04-18T12:24:30.135Z,98060.84
2023-04-18T12:26:58.247Z,98051.13
2023-04-18T12:29:26.042Z,98051.19
2023-04-18T12:31:53.237Z,98054.09
2023-04-18T12:34:20.420Z,98050.25
2023-04-18T12:36:47.365Z,98052.53
2023-04-18T12:39:14.354Z,98052.31
2023-04-18T12:41:41.176Z,98051.81
2023-04-18T12:44:08.009Z,98049.13
2023-04-18T12:46:34.926Z,98046.75
2023-04-18T12:49:01.843Z,98052.28
2023-04-18T12:51:28.666Z,98045.28
2023-04-18T12:53:55.609Z,98050.09
2023-04-18T12:56:22.496Z,98050.34
2023-04-18T12:58:49.647Z,98055.69
2023-04-18T13:01:17.224Z,98043.75
2023-04-18T13:03:45.555Z,98050.91
2023-04-18T13:06:15.914Z,98053.47
2023-04-18T13:08:42.910Z,98059.28
2023-04-18T13:11:09.768Z,98052.22
2023-04-18T13:13:36.622Z,98054.28
2023-04-18T13:16:03.636Z,98050.84
2023-04-18T13:18:30.518Z,98047.41
2023-04-18T13:20:57.394Z,98052.84
2023-04-18T13:23:24.206Z,98040.28
2023-04-18T13:25:51.076Z,98054.41
2023-04-18T13:28:17.948Z,98057.22
2023-04-18T13:30:44.775Z,98050.50
2023-04-18T13:33:11.728Z,98049.97
2023-04-18T13:35:38.625Z,98047.38
2023-04-18T13:38:05.489Z,98047.28
2023-04-18T13:40:33.611Z,98043.53
2023-04-18T13:43:00.536Z,98037.13
2023-04-18T13:45:27.557Z,98037.81
2023-04-18T13:47:54.577Z,98045.88
2023-04-18T13:50:21.641Z,98049.97
2023-04-18T13:52:49.413Z,98048.81
2023-04-18T13:55:16.367Z,98054.28
2023-04-18T13:57:43.240Z,98043.75
2023-04-18T14:00:12.947Z,98047.63
2023-04-18T14:02:40.196Z,98045.31
2023-04-18T14:05:07.713Z,98052.84
2023-04-18T14:07:35.523Z,98055.34
2023-04-18T14:10:02.468Z,98040.13
2023-04-18T14:12:29.293Z,98054.91
2023-04-18T14:14:56.134Z,98057.47
2023-04-18T14:17:23.002Z,98057.03
2023-04-18T14:19:51.480Z,98055.31
2023-04-18T14:22:18.333Z,98050.72
2023-04-18T14:24:45.206Z,98056.59
2023-04-18T14:27:12.099Z,98058.63
2023-04-18T14:29:38.973Z,98051.78
2023-04-18T14:32:07.199Z,98055.94
2023-04-18T14:34:35.315Z,98059.53
2023-04-18T14:37:03.808Z,98050.37
2023-04-18T14:39:31.216Z,98048.06
2023-04-18T14:41:58.160Z,98053.59
2023-04-18T14:44:25.081Z,98054.88
2023-04-18T14:46:51.964Z,98053.59
2023-04-18T14:49:18.869Z,98061.72
2023-04-18T14:51:45.791Z,98051.59
2023-04-18T14:54:12.945Z,98051.63
2023-04-18T14:56:39.829Z,98058.91
2023-04-18T14:59:06.753Z,98057.22
2023-04-18T15:01:33.687Z,98054.91
2023-04-18T15:04:00.744Z,98053.62
2023-04-18T15:06:28.597Z,98055.94
2023-04-18T15:08:56.027Z,98060.47
2023-04-18T15:11:23.287Z,98050.72
2023-04-18T15:13:50.910Z,98058.44
2023-04-18T15:16:17.837Z,98053.94
2023-04-18T15:18:45.241Z,98063.16
2023-04-18T15:21:12.148Z,98060.66
2023-04-18T15:23:39.104Z,98059.44
2023-04-18T15:26:06.334Z,98051.31
2023-04-18T15:28:33.229Z,98061.91
2023-04-18T15:31:00.250Z,98061.75
2023-04-18T15:33:27.205Z,98054.03
2023-04-18T15:35:55.742Z,98063.88
2023-04-18T15:38:22.655Z,98060.34
2023-04-18T15:40:49.581Z,98072.50
2023-04-18T15:43:17.365Z,98070.91
2023-04-18T15:45:44.780Z,98076.75
2023-04-18T15:48:13.274Z,98078.13
2023-04-18T15:50:42.614Z,98076.25
2023-04-18T15:53:09.561Z,98074.88
2023-04-18T15:55:36.544Z,98083.16
2023-04-18T15:58:03.692Z,98079.28
2023-04-18T16:00:30.628Z,98080.66
2023-04-18T16:02:57.573Z,98086.28
2023-04-18T16:05:24.507Z,98081.28
2023-04-18T16:07:53.890Z,98090.09
2023-04-18T16:10:20.925Z,98080.47
2023-04-18T16:12:47.943Z,98082.66
2023-04-18T16:15:14.845Z,98105.44
2023-04-18T16:17:41.745Z,98099.72
2023-04-18T16:20:09.304Z,98109.06
2023-04-18T16:22:36.745Z,98105.38
2023-04-18T16:25:04.572Z,98110.06
2023-04-18T16:27:31.509Z,98115.56
2023-04-18T16:29:59.466Z,98108.78
2023-04-18T16:32:26.577Z,98107.72
2023-04-18T16:34:53.509Z,98114.84
2023-04-18T16:37:20.499Z,98111.63
2023-04-18T16:39:50.366Z,98113.75
2023-04-18T16:42:17.221Z,98116.75
2023-04-18T16:44:45.437Z,98112.53
2023-04-18T16:47:12.315Z,98102.06
2023-04-18T16:49:45.000Z,98089.69
2023-04-18T16:52:11.912Z,98086.66
2023-04-18T16:54:38.812Z,98084.31
2023-04-18T16:57:05.771Z,98077.97
2023-04-18T16:59:46.072Z,98077.81
2023-04-18T17:02:13.115Z,98088.03
2023-04-18T17:04:40.221Z,98091.12
2023-04-18T17:07:07.207Z,98102.84
2023-04-18T17:10:31.548Z,98107.00
2023-04-18T17:12:58.822Z,98101.75
2023-04-18T17:15:27.289Z,98103.72
2023-04-18T17:17:56.019Z,98099.91
2023-04-18T17:20:23.743Z,98106.03
2023-04-18T17:22:51.240Z,98081.53
2023-04-18T17:25:18.178Z,98081.25
2023-04-18T17:27:45.048Z,98078.28
2023-04-18T17:30:12.197Z,98093.16
2023-04-18T17:32:45.963Z,98104.91
2023-04-18T17:35:14.795Z,98106.41
2023-04-18T17:38:01.267Z,98111.72
2023-04-18T17:40:28.337Z,98103.94
2023-04-18T17:42:55.172Z,98122.75
2023-04-18T17:45:22.075Z,98108.81
2023-04-18T17:47:57.673Z,98128.16
2023-04-18T17:50:24.599Z,98130.88
2023-04-18T17:52:51.462Z,98124.69
2023-04-18T17:55:18.644Z,98133.22
2023-04-18T17:57:45.595Z,98137.53
2023-04-18T18:00:13.947Z,98149.13
2023-04-18T18:02:42.928Z,98143.28
2023-04-18T18:05:13.971Z,98142.16
2023-04-18T18:07:43.279Z,98139.53
2023-04-18T18:10:19.188Z,98137.16
2023-04-18T18:12:46.336Z,98149.25
2023-04-18T18:15:13.372Z,98145.91
2023-04-18T18:17:40.334Z,98151.84
2023-04-18T18:20:10.593Z,98148.69
2023-04-18T18:22:37.550Z,98137.28
2023-04-18T18:25:05.574Z,98138.19
2023-04-18T18:27:32.480Z,98145.12
2023-04-18T18:30:18.413Z,98137.50
2023-04-18T18:32:45.281Z,98140.59
2023-04-18T18:35:12.738Z,98138.47
2023-04-18T18:37:39.601Z,98139.38
2023-04-18T18:40:07.478Z,98151.66
2023-04-18T18:42:34.524Z,98148.75
2023-04-18T18:45:01.821Z,98149.69
2023-04-18T18:47:30.629Z,98155.16
2023-04-18T18:50:12.867Z,98166.44
2023-04-18T18:52:43.567Z,98200.50
2023-04-18T18:55:11.073Z,98213.28
2023-04-18T18:57:37.997Z,98219.81
2023-04-18T19:00:09.791Z,98206.59
2023-04-18T19:02:37.382Z,98233.47
2023-04-18T19:05:05.860Z,98223.00
2023-04-18T19:07:33.758Z,98220.75
2023-04-18T19:10:10.250Z,98211.78
2023-04-18T19:12:38.035Z,98212.88
2023-04-18T19:15:06.077Z,98203.00
2023-04-18T19:17:33.030Z,98201.97
2023-04-18T19:23:04.562Z,98201.66
2023-04-18T19:25:31.493Z,98213.16
2023-04-18T19:28:35.930Z,98218.28
2023-04-18T19:31:02.829Z,98241.97
2023-04-18T19:33:30.417Z,98241.00
2023-04-18T19:35:57.321Z,98235.16
2023-04-18T19:38:43.509Z,98230.47
2023-04-18T19:41:10.444Z,98241.00
2023-04-18T19:43:38.561Z,98245.00
2023-04-18T19:46:05.517Z,98262.72
2023-04-18T19:48:43.407Z,98264.72
2023-04-18T19:51:10.573Z,98257.75
2023-04-18T19:53:37.466Z,98248.59
2023-04-18T19:56:04.519Z,98249.53
2023-04-18T19:58:34.938Z,98245.56
2023-04-18T20:01:02.238Z,98234.63
2023-04-18T20:03:29.291Z,98221.09
2023-04-18T20:05:56.401Z,98231.38
2023-04-18T20:08:25.449Z,98223.13
2023-04-18T20:10:52.324Z,98223.81
2023-04-18T20:13:19.258Z,98222.97
2023-04-18T20:15:46.130Z,98219.41
2023-04-18T20:18:13.041Z,98219.06
2023-04-18T20:20:39.880Z,98212.13
2023-04-18T20:23:06.549Z,98213.19
2023-04-18T20:25:36.454Z,98220.13
2023-04-18T20:28:11.115Z,98212.19
2023-04-18T20:30:38.039Z,98209.28
2023-04-18T20:33:05.012Z,98198.75
2023-04-18T20:35:31.900Z,98180.31
2023-04-18T20:38:00.390Z,98162.69
2023-04-18T20:40:28.295Z,98151.28
2023-04-18T20:42:58.013Z,98138.81
2023-04-18T20:45:25.357Z,98136.66
2023-04-18T20:47:52.408Z,98146.97
2023-04-18T20:50:20.659Z,98140.56
2023-04-18T20:52:47.796Z,98137.09
2023-04-18T20:55:16.888Z,98132.00
2023-04-18T20:57:43.784Z,98131.19
2023-04-18T21:00:14.284Z,98129.81
2023-04-18T21:02:41.848Z,98138.03
2023-04-18T21:05:09.151Z,98147.94
2023-04-18T21:07:36.393Z,98142.88
2023-04-18T21:10:04.208Z,98150.72
2023-04-18T21:12:31.047Z,98150.84
2023-04-18T21:14:57.910Z,98144.38
2023-04-18T21:17:25.699Z,98141.75
2023-04-18T21:19:52.824Z,98140.06
2023-04-18T21:22:19.808Z,98146.47
2023-04-18T21:24:47.023Z,98142.03
2023-04-18T21:27:15.948Z,98145.25
2023-04-18T21:29:48.057Z,98145.25
2023-04-18T21:32:14.900Z,98148.22
2023-04-18T21:34:41.775Z,98144.50
2023-04-18T21:37:08.660Z,98148.28
2023-04-18T21:39:45.758Z,98151.13
2023-04-18T21:42:12.884Z,98158.28
2023-04-18T21:44:39.771Z,98151.44
2023-04-18T21:47:06.600Z,98155.81
2023-04-18T21:49:34.492Z,98154.59
2023-04-18T21:52:01.395Z,98157.47
2023-04-18T21:54:28.212Z,98156.31
2023-04-18T21:56:55.033Z,98157.13
2023-04-18T21:59:44.689Z,98161.31
2023-04-18T22:02:11.717Z,98159.94
2023-04-18T22:04:42.908Z,98167.31
2023-04-18T22:07:11.506Z,98169.13
2023-04-18T22:09:48.549Z,98167.94
2023-04-18T22:12:15.725Z,98166.44
2023-04-18T22:14:48.328Z,98171.50
2023-04-18T22:17:15.290Z,98167.25
2023-04-18T22:19:44.569Z,98167.59
2023-04-18T22:22:11.709Z,98170.41
2023-04-18T22:24:38.610Z,98171.28
2023-04-18T22:27:05.956Z,98166.84
2023-04-18T22:29:46.977Z,98167.94
2023-04-18T22:32:13.884Z,98174.59
2023-04-18T22:34:40.851Z,98172.44
2023-04-18T22:37:07.679Z,98171.59
2023-04-18T22:39:50.742Z,98175.06
2023-04-18T22:42:17.729Z,98173.84
2023-04-18T22:44:44.620Z,98173.88
2023-04-18T22:47:11.662Z,98171.91
2023-04-18T22:49:54.169Z,98176.03
2023-04-18T22:52:23.893Z,98178.28
2023-04-18T22:54:53.998Z,98174.91
2023-04-18T22:57:21.136Z,98172.25
2023-04-18T22:59:49.001Z,98166.09
2023-04-18T23:02:16.235Z,98162.38
2023-04-18T23:04:45.483Z,98158.63
2023-04-18T23:07:12.425Z,98150.97
2023-04-18T23:09:39.293Z,98148.50
2023-04-18T23:12:06.182Z,98151.94
2023-04-18T23:14:34.511Z,98144.84
2023-04-18T23:17:01.661Z,98140.69
2023-04-18T23:19:28.553Z,98140.97
2023-04-18T23:21:55.667Z,98131.66
2023-04-18T23:24:22.524Z,98133.75
2023-04-18T23:26:49.399Z,98129.38
2023-04-18T23:29:26.329Z,98125.56
2023-04-18T23:31:53.274Z,98119.78
2023-04-18T23:34:20.206Z,98123.12
2023-04-18T23:36:47.326Z,98117.78
2023-04-18T23:39:47.487Z,98119.50
2023-04-18T23:42:14.349Z,98119.69
2023-04-18T23:44:41.213Z,98115.56
2023-04-18T23:47:08.121Z,98112.00
2023-04-18T23:49:59.747Z,98107.22
2023-04-18T23:52:26.614Z,98104.69
2023-04-18T23:54:53.538Z,98106.66
2023-04-18T23:57:20.404Z,98105.66
